sensor_id;sensor_type;location;lat;lon;timestamp;temperature;humidity
7518;DHT22;3800;48.922;9.444;2022-10-29T00:00:20;11.90;99.90
7518;DHT22;3800;48.922;9.444;2022-10-29T00:02:48;11.90;99.90
7518;DHT22;3800;48.922;9.444;2022-10-29T00:05:15;12.00;99.90
7518;DHT22;3800;48.922;9.444;2022-10-29T00:07:43;12.00;99.90
7518;DHT22;3800;48.922;9.444;2022-10-29T00:10:11;12.00;99.90
7518;DHT22;3800;48.922;9.444;2022-10-29T00:12:38;12.00;99.90
7518;DHT22;3800;48.922;9.444;2022-10-29T00:15:06;11.90;99.90
7518;DHT22;3800;48.922;9.444;2022-10-29T00:17:34;11.90;99.90
7518;DHT22;3800;48.922;9.444;2022-10-29T00:20:02;11.80;99.90
7518;DHT22;3800;48.922;9.444;2022-10-29T00:22:29;11.70;99.90
7518;DHT22;3800;48.922;9.444;2022-10-29T00:24:58;11.60;99.90
7518;DHT22;3800;48.922;9.444;2022-10-29T00:27:25;11.60;99.90
7518;DHT22;3800;48.922;9.444;2022-10-29T00:29:53;11.50;99.90
7518;DHT22;3800;48.922;9.444;2022-10-29T00:32:21;11.50;99.90
7518;DHT22;3800;48.922;9.444;2022-10-29T00:34:48;11.50;99.90
7518;DHT22;3800;48.922;9.444;2022-10-29T00:37:16;11.50;99.90
7518;DHT22;3800;48.922;9.444;2022-10-29T00:39:44;11.40;99.90
7518;DHT22;3800;48.922;9.444;2022-10-29T00:42:14;11.40;99.90
7518;DHT22;3800;48.922;9.444;2022-10-29T00:44:41;11.40;99.90
7518;DHT22;3800;48.922;9.444;2022-10-29T00:47:15;11.40;99.90
7518;DHT22;3800;48.922;9.444;2022-10-29T00:49:40;11.40;99.90
7518;DHT22;3800;48.922;9.444;2022-10-29T00:52:08;11.40;99.90
7518;DHT22;3800;48.922;9.444;2022-10-29T00:54:35;11.40;99.90
7518;DHT22;3800;48.922;9.444;2022-10-29T00:57:04;11.40;99.90
7518;DHT22;3800;48.922;9.444;2022-10-29T00:59:30;11.50;99.90
7518;DHT22;3800;48.922;9.444;2022-10-29T01:01:58;11.40;99.90
7518;DHT22;3800;48.922;9.444;2022-10-29T01:04:26;11.40;99.90
7518;DHT22;3800;48.922;9.444;2022-10-29T01:06:53;11.40;99.90
7518;DHT22;3800;48.922;9.444;2022-10-29T01:09:22;11.30;99.90
7518;DHT22;3800;48.922;9.444;2022-10-29T01:13:04;11.30;99.90
7518;DHT22;3800;48.922;9.444;2022-10-29T01:15:47;11.20;99.90
7518;DHT22;3800;48.922;9.444;2022-10-29T01:17:41;11.20;99.90
7518;DHT22;3800;48.922;9.444;2022-10-29T01:20:31;11.10;99.90
7518;DHT22;3800;48.922;9.444;2022-10-29T01:25:57;11.10;99.90
7518;DHT22;3800;48.922;9.444;2022-10-29T01:28:30;11.10;99.90
7518;DHT22;3800;48.922;9.444;2022-10-29T01:30:57;11.10;99.90
7518;DHT22;3800;48.922;9.444;2022-10-29T01:33:24;11.10;99.90
7518;DHT22;3800;48.922;9.444;2022-10-29T01:36:06;11.10;99.90
7518;DHT22;3800;48.922;9.444;2022-10-29T01:38:36;11.10;99.90
7518;DHT22;3800;48.922;9.444;2022-10-29T01:41:20;11.10;99.90
7518;DHT22;3800;48.922;9.444;2022-10-29T01:43:50;11.10;99.90
7518;DHT22;3800;48.922;9.444;2022-10-29T01:46:19;11.00;99.90
7518;DHT22;3800;48.922;9.444;2022-10-29T01:48:47;11.00;99.90
7518;DHT22;3800;48.922;9.444;2022-10-29T01:51:16;11.00;99.90
7518;DHT22;3800;48.922;9.444;2022-10-29T01:53:40;11.00;99.90
7518;DHT22;3800;48.922;9.444;2022-10-29T01:56:08;11.00;99.90
7518;DHT22;3800;48.922;9.444;2022-10-29T01:58:36;11.00;99.90
7518;DHT22;3800;48.922;9.444;2022-10-29T02:01:05;11.00;99.90
7518;DHT22;3800;48.922;9.444;2022-10-29T02:03:36;11.00;99.90
7518;DHT22;3800;48.922;9.444;2022-10-29T02:09:02;10.90;99.90
7518;DHT22;3800;48.922;9.444;2022-10-29T02:11:31;10.90;99.90
7518;DHT22;3800;48.922;9.444;2022-10-29T02:13:58;10.90;99.90
7518;DHT22;3800;48.922;9.444;2022-10-29T02:16:24;10.90;99.90
7518;DHT22;3800;48.922;9.444;2022-10-29T02:18:51;10.90;99.90
7518;DHT22;3800;48.922;9.444;2022-10-29T02:21:19;10.80;99.90
7518;DHT22;3800;48.922;9.444;2022-10-29T02:23:46;10.70;99.90
7518;DHT22;3800;48.922;9.444;2022-10-29T02:26:14;10.70;99.90
7518;DHT22;3800;48.922;9.444;2022-10-29T02:28:42;10.70;99.90
7518;DHT22;3800;48.922;9.444;2022-10-29T02:31:09;10.70;99.90
7518;DHT22;3800;48.922;9.444;2022-10-29T02:33:37;10.70;99.90
7518;DHT22;3800;48.922;9.444;2022-10-29T02:36:05;10.70;99.90
7518;DHT22;3800;48.922;9.444;2022-10-29T02:38:33;10.70;99.90
7518;DHT22;3800;48.922;9.444;2022-10-29T02:41:00;10.70;99.90
7518;DHT22;3800;48.922;9.444;2022-10-29T02:43:29;10.80;99.90
7518;DHT22;3800;48.922;9.444;2022-10-29T02:46:09;10.80;99.90
7518;DHT22;3800;48.922;9.444;2022-10-29T02:48:37;10.80;99.90
7518;DHT22;3800;48.922;9.444;2022-10-29T02:51:04;10.80;99.90
7518;DHT22;3800;48.922;9.444;2022-10-29T02:53:32;10.80;99.90
7518;DHT22;3800;48.922;9.444;2022-10-29T02:56:00;10.80;99.90
7518;DHT22;3800;48.922;9.444;2022-10-29T02:58:27;10.80;99.90
7518;DHT22;3800;48.922;9.444;2022-10-29T03:00:55;10.80;99.90
7518;DHT22;3800;48.922;9.444;2022-10-29T03:03:23;10.80;99.90
7518;DHT22;3800;48.922;9.444;2022-10-29T03:05:51;10.80;99.90
7518;DHT22;3800;48.922;9.444;2022-10-29T03:08:19;10.80;99.90
7518;DHT22;3800;48.922;9.444;2022-10-29T03:10:46;10.70;99.90
7518;DHT22;3800;48.922;9.444;2022-10-29T03:13:14;10.70;99.90
7518;DHT22;3800;48.922;9.444;2022-10-29T03:15:43;10.70;99.90
7518;DHT22;3800;48.922;9.444;2022-10-29T03:18:11;10.70;99.90
7518;DHT22;3800;48.922;9.444;2022-10-29T03:20:38;10.70;99.90
7518;DHT22;3800;48.922;9.444;2022-10-29T03:23:06;10.70;99.90
7518;DHT22;3800;48.922;9.444;2022-10-29T03:25:33;10.70;99.90
7518;DHT22;3800;48.922;9.444;2022-10-29T03:28:01;10.70;99.90
7518;DHT22;3800;48.922;9.444;2022-10-29T03:30:29;10.70;99.90
7518;DHT22;3800;48.922;9.444;2022-10-29T03:32:56;10.70;99.90
7518;DHT22;3800;48.922;9.444;2022-10-29T03:35:24;10.70;99.90
7518;DHT22;3800;48.922;9.444;2022-10-29T03:37:52;10.70;99.90
7518;DHT22;3800;48.922;9.444;2022-10-29T03:40:19;10.70;99.90
7518;DHT22;3800;48.922;9.444;2022-10-29T03:42:47;10.70;99.90
7518;DHT22;3800;48.922;9.444;2022-10-29T03:45:15;10.70;99.90
7518;DHT22;3800;48.922;9.444;2022-10-29T03:47:42;10.70;99.90
7518;DHT22;3800;48.922;9.444;2022-10-29T03:50:10;10.70;99.90
7518;DHT22;3800;48.922;9.444;2022-10-29T03:52:38;10.70;99.90
7518;DHT22;3800;48.922;9.444;2022-10-29T03:55:06;10.70;99.90
7518;DHT22;3800;48.922;9.444;2022-10-29T03:57:34;10.70;99.90
7518;DHT22;3800;48.922;9.444;2022-10-29T04:00:02;10.80;99.90
7518;DHT22;3800;48.922;9.444;2022-10-29T04:02:29;10.80;99.90
7518;DHT22;3800;48.922;9.444;2022-10-29T04:04:57;10.80;99.90
7518;DHT22;3800;48.922;9.444;2022-10-29T04:07:24;10.80;99.90
7518;DHT22;3800;48.922;9.444;2022-10-29T04:09:52;10.80;99.90
7518;DHT22;3800;48.922;9.444;2022-10-29T04:12:20;10.80;99.90
7518;DHT22;3800;48.922;9.444;2022-10-29T04:14:47;10.80;99.90
7518;DHT22;3800;48.922;9.444;2022-10-29T04:17:15;10.80;99.90
7518;DHT22;3800;48.922;9.444;2022-10-29T04:19:43;10.90;99.90
7518;DHT22;3800;48.922;9.444;2022-10-29T04:22:10;10.90;99.90
7518;DHT22;3800;48.922;9.444;2022-10-29T04:24:38;11.00;99.90
7518;DHT22;3800;48.922;9.444;2022-10-29T04:27:06;11.00;99.90
7518;DHT22;3800;48.922;9.444;2022-10-29T04:29:33;11.00;99.90
7518;DHT22;3800;48.922;9.444;2022-10-29T04:32:01;11.10;99.90
7518;DHT22;3800;48.922;9.444;2022-10-29T04:34:28;11.00;99.90
7518;DHT22;3800;48.922;9.444;2022-10-29T04:36:57;11.10;99.90
7518;DHT22;3800;48.922;9.444;2022-10-29T04:39:25;11.20;99.90
7518;DHT22;3800;48.922;9.444;2022-10-29T04:41:53;11.10;99.90
7518;DHT22;3800;48.922;9.444;2022-10-29T04:44:21;11.20;99.90
7518;DHT22;3800;48.922;9.444;2022-10-29T04:46:48;11.20;99.90
7518;DHT22;3800;48.922;9.444;2022-10-29T04:49:16;11.20;99.90
7518;DHT22;3800;48.922;9.444;2022-10-29T04:51:44;11.20;99.90
7518;DHT22;3800;48.922;9.444;2022-10-29T04:54:12;11.20;99.90
7518;DHT22;3800;48.922;9.444;2022-10-29T04:56:40;11.20;99.90
7518;DHT22;3800;48.922;9.444;2022-10-29T04:59:07;11.20;99.90
7518;DHT22;3800;48.922;9.444;2022-10-29T05:01:35;11.20;99.90
7518;DHT22;3800;48.922;9.444;2022-10-29T05:04:02;11.20;99.90
7518;DHT22;3800;48.922;9.444;2022-10-29T05:06:30;11.20;99.90
7518;DHT22;3800;48.922;9.444;2022-10-29T05:08:58;11.10;99.90
7518;DHT22;3800;48.922;9.444;2022-10-29T05:11:25;11.10;99.90
7518;DHT22;3800;48.922;9.444;2022-10-29T05:13:53;11.10;99.90
7518;DHT22;3800;48.922;9.444;2022-10-29T05:16:21;11.10;99.90
7518;DHT22;3800;48.922;9.444;2022-10-29T05:18:48;11.10;99.90
7518;DHT22;3800;48.922;9.444;2022-10-29T05:21:16;11.10;99.90
7518;DHT22;3800;48.922;9.444;2022-10-29T05:23:43;11.10;99.90
7518;DHT22;3800;48.922;9.444;2022-10-29T05:26:11;11.10;99.90
7518;DHT22;3800;48.922;9.444;2022-10-29T05:28:39;11.10;99.90
7518;DHT22;3800;48.922;9.444;2022-10-29T05:31:06;11.10;99.90
7518;DHT22;3800;48.922;9.444;2022-10-29T05:33:34;11.00;99.90
7518;DHT22;3800;48.922;9.444;2022-10-29T05:36:02;11.00;99.90
7518;DHT22;3800;48.922;9.444;2022-10-29T05:38:29;11.00;99.90
7518;DHT22;3800;48.922;9.444;2022-10-29T05:40:58;10.90;99.90
7518;DHT22;3800;48.922;9.444;2022-10-29T05:43:25;10.90;99.90
7518;DHT22;3800;48.922;9.444;2022-10-29T05:45:53;10.90;99.90
7518;DHT22;3800;48.922;9.444;2022-10-29T05:48:21;10.90;99.90
7518;DHT22;3800;48.922;9.444;2022-10-29T05:50:48;10.80;99.90
7518;DHT22;3800;48.922;9.444;2022-10-29T05:53:16;10.80;99.90
7518;DHT22;3800;48.922;9.444;2022-10-29T05:55:44;10.70;99.90
7518;DHT22;3800;48.922;9.444;2022-10-29T05:58:12;10.70;99.90
7518;DHT22;3800;48.922;9.444;2022-10-29T06:00:40;10.70;99.90
7518;DHT22;3800;48.922;9.444;2022-10-29T06:03:14;10.60;99.90
7518;DHT22;3800;48.922;9.444;2022-10-29T06:05:41;10.70;99.90
7518;DHT22;3800;48.922;9.444;2022-10-29T06:08:08;10.70;99.90
7518;DHT22;3800;48.922;9.444;2022-10-29T06:10:38;10.60;99.90
7518;DHT22;3800;48.922;9.444;2022-10-29T06:13:11;10.60;99.90
7518;DHT22;3800;48.922;9.444;2022-10-29T06:15:38;10.60;99.90
7518;DHT22;3800;48.922;9.444;2022-10-29T06:18:06;10.60;99.90
7518;DHT22;3800;48.922;9.444;2022-10-29T06:20:34;10.50;99.90
7518;DHT22;3800;48.922;9.444;2022-10-29T06:23:01;10.50;99.90
7518;DHT22;3800;48.922;9.444;2022-10-29T06:25:28;10.50;99.90
7518;DHT22;3800;48.922;9.444;2022-10-29T06:28:04;10.60;99.90
7518;DHT22;3800;48.922;9.444;2022-10-29T06:30:33;10.60;99.90
7518;DHT22;3800;48.922;9.444;2022-10-29T06:33:00;10.60;99.90
7518;DHT22;3800;48.922;9.444;2022-10-29T06:35:27;10.60;99.90
7518;DHT22;3800;48.922;9.444;2022-10-29T06:37:55;10.60;99.90
7518;DHT22;3800;48.922;9.444;2022-10-29T06:40:23;10.60;99.90
7518;DHT22;3800;48.922;9.444;2022-10-29T06:42:59;10.50;99.90
7518;DHT22;3800;48.922;9.444;2022-10-29T06:45:27;10.50;99.90
7518;DHT22;3800;48.922;9.444;2022-10-29T06:47:54;10.60;99.90
7518;DHT22;3800;48.922;9.444;2022-10-29T06:50:22;10.60;99.90
7518;DHT22;3800;48.922;9.444;2022-10-29T06:52:56;10.60;99.90
7518;DHT22;3800;48.922;9.444;2022-10-29T06:55:23;10.60;99.90
7518;DHT22;3800;48.922;9.444;2022-10-29T06:57:55;10.60;99.90
7518;DHT22;3800;48.922;9.444;2022-10-29T07:00:23;10.60;99.90
7518;DHT22;3800;48.922;9.444;2022-10-29T07:02:50;10.70;99.90
7518;DHT22;3800;48.922;9.444;2022-10-29T07:05:18;10.70;99.90
7518;DHT22;3800;48.922;9.444;2022-10-29T07:07:46;10.80;99.90
7518;DHT22;3800;48.922;9.444;2022-10-29T07:10:15;10.80;99.90
7518;DHT22;3800;48.922;9.444;2022-10-29T07:12:42;10.80;99.90
7518;DHT22;3800;48.922;9.444;2022-10-29T07:15:10;10.80;99.90
7518;DHT22;3800;48.922;9.444;2022-10-29T07:17:38;10.80;99.90
7518;DHT22;3800;48.922;9.444;2022-10-29T07:20:06;10.80;99.90
7518;DHT22;3800;48.922;9.444;2022-10-29T07:22:34;10.90;99.90
7518;DHT22;3800;48.922;9.444;2022-10-29T07:25:01;11.00;99.90
7518;DHT22;3800;48.922;9.444;2022-10-29T07:27:29;11.10;99.90
7518;DHT22;3800;48.922;9.444;2022-10-29T07:29:57;11.10;99.90
7518;DHT22;3800;48.922;9.444;2022-10-29T07:32:25;11.20;99.90
7518;DHT22;3800;48.922;9.444;2022-10-29T07:34:53;11.30;99.90
7518;DHT22;3800;48.922;9.444;2022-10-29T07:37:21;11.40;99.90
7518;DHT22;3800;48.922;9.444;2022-10-29T07:39:48;11.50;99.90
7518;DHT22;3800;48.922;9.444;2022-10-29T07:42:16;11.60;99.90
7518;DHT22;3800;48.922;9.444;2022-10-29T07:44:43;11.70;99.90
7518;DHT22;3800;48.922;9.444;2022-10-29T07:47:11;11.80;99.90
7518;DHT22;3800;48.922;9.444;2022-10-29T07:49:39;11.90;99.90
7518;DHT22;3800;48.922;9.444;2022-10-29T07:52:07;12.00;99.90
7518;DHT22;3800;48.922;9.444;2022-10-29T07:54:34;12.10;99.90
7518;DHT22;3800;48.922;9.444;2022-10-29T07:57:02;12.20;99.90
7518;DHT22;3800;48.922;9.444;2022-10-29T07:59:29;12.40;99.90
7518;DHT22;3800;48.922;9.444;2022-10-29T08:01:58;12.60;99.90
7518;DHT22;3800;48.922;9.444;2022-10-29T08:04:25;12.60;99.90
7518;DHT22;3800;48.922;9.444;2022-10-29T08:06:53;12.70;99.90
7518;DHT22;3800;48.922;9.444;2022-10-29T08:09:21;12.70;99.90
7518;DHT22;3800;48.922;9.444;2022-10-29T08:11:48;12.80;99.90
7518;DHT22;3800;48.922;9.444;2022-10-29T08:14:17;12.90;99.90
7518;DHT22;3800;48.922;9.444;2022-10-29T08:16:44;12.80;99.90
7518;DHT22;3800;48.922;9.444;2022-10-29T08:19:14;13.00;99.90
7518;DHT22;3800;48.922;9.444;2022-10-29T08:21:41;13.00;99.90
7518;DHT22;3800;48.922;9.444;2022-10-29T08:24:10;13.10;99.90
7518;DHT22;3800;48.922;9.444;2022-10-29T08:26:37;13.10;99.90
7518;DHT22;3800;48.922;9.444;2022-10-29T08:29:06;13.20;99.90
7518;DHT22;3800;48.922;9.444;2022-10-29T08:31:33;13.20;99.90
7518;DHT22;3800;48.922;9.444;2022-10-29T08:34:01;13.20;99.90
7518;DHT22;3800;48.922;9.444;2022-10-29T08:36:29;13.30;99.90
7518;DHT22;3800;48.922;9.444;2022-10-29T08:38:57;13.30;99.90
7518;DHT22;3800;48.922;9.444;2022-10-29T08:41:35;13.40;99.90
7518;DHT22;3800;48.922;9.444;2022-10-29T08:44:08;13.50;99.90
7518;DHT22;3800;48.922;9.444;2022-10-29T08:46:45;13.60;99.90
7518;DHT22;3800;48.922;9.444;2022-10-29T08:49:17;13.70;99.90
7518;DHT22;3800;48.922;9.444;2022-10-29T08:51:48;13.70;99.90
7518;DHT22;3800;48.922;9.444;2022-10-29T08:54:14;13.80;99.90
7518;DHT22;3800;48.922;9.444;2022-10-29T08:56:44;13.90;99.90
7518;DHT22;3800;48.922;9.444;2022-10-29T08:59:14;14.00;99.90
7518;DHT22;3800;48.922;9.444;2022-10-29T09:01:41;14.20;99.90
7518;DHT22;3800;48.922;9.444;2022-10-29T09:04:17;14.30;99.90
7518;DHT22;3800;48.922;9.444;2022-10-29T09:06:43;14.40;99.90
7518;DHT22;3800;48.922;9.444;2022-10-29T09:09:23;14.40;99.90
7518;DHT22;3800;48.922;9.444;2022-10-29T09:12:01;14.50;99.90
7518;DHT22;3800;48.922;9.444;2022-10-29T09:14:39;14.60;99.90
7518;DHT22;3800;48.922;9.444;2022-10-29T09:17:11;14.80;99.90
7518;DHT22;3800;48.922;9.444;2022-10-29T09:19:57;14.80;99.90
7518;DHT22;3800;48.922;9.444;2022-10-29T09:22:44;14.90;99.90
7518;DHT22;3800;48.922;9.444;2022-10-29T09:25:17;14.90;99.90
7518;DHT22;3800;48.922;9.444;2022-10-29T09:27:52;15.00;99.90
7518;DHT22;3800;48.922;9.444;2022-10-29T09:30:17;15.00;99.90
7518;DHT22;3800;48.922;9.444;2022-10-29T09:33:00;15.00;99.90
7518;DHT22;3800;48.922;9.444;2022-10-29T09:35:33;15.00;99.90
7518;DHT22;3800;48.922;9.444;2022-10-29T09:37:58;15.00;99.90
7518;DHT22;3800;48.922;9.444;2022-10-29T09:40:32;15.20;99.90
7518;DHT22;3800;48.922;9.444;2022-10-29T09:42:59;15.20;99.90
7518;DHT22;3800;48.922;9.444;2022-10-29T09:45:34;15.30;99.90
7518;DHT22;3800;48.922;9.444;2022-10-29T09:48:05;15.40;99.90
7518;DHT22;3800;48.922;9.444;2022-10-29T09:50:34;15.40;99.90
7518;DHT22;3800;48.922;9.444;2022-10-29T09:52:58;15.50;99.90
7518;DHT22;3800;48.922;9.444;2022-10-29T09:55:28;15.60;99.90
7518;DHT22;3800;48.922;9.444;2022-10-29T09:57:55;15.70;99.90
7518;DHT22;3800;48.922;9.444;2022-10-29T10:00:25;15.80;99.90
7518;DHT22;3800;48.922;9.444;2022-10-29T10:03:12;16.00;99.90
7518;DHT22;3800;48.922;9.444;2022-10-29T10:08:18;16.30;99.90
7518;DHT22;3800;48.922;9.444;2022-10-29T10:10:50;16.30;99.90
7518;DHT22;3800;48.922;9.444;2022-10-29T10:13:19;16.50;99.90
7518;DHT22;3800;48.922;9.444;2022-10-29T10:15:48;16.50;99.90
7518;DHT22;3800;48.922;9.444;2022-10-29T10:18:16;16.60;99.90
7518;DHT22;3800;48.922;9.444;2022-10-29T10:20:44;16.60;99.90
7518;DHT22;3800;48.922;9.444;2022-10-29T10:23:21;16.70;99.90
7518;DHT22;3800;48.922;9.444;2022-10-29T10:25:47;16.80;99.90
7518;DHT22;3800;48.922;9.444;2022-10-29T10:28:18;16.90;99.90
7518;DHT22;3800;48.922;9.444;2022-10-29T10:30:45;17.00;99.90
7518;DHT22;3800;48.922;9.444;2022-10-29T10:33:21;17.10;99.90
7518;DHT22;3800;48.922;9.444;2022-10-29T10:35:46;17.10;99.90
7518;DHT22;3800;48.922;9.444;2022-10-29T10:38:14;17.20;99.90
7518;DHT22;3800;48.922;9.444;2022-10-29T10:40:42;17.20;99.90
7518;DHT22;3800;48.922;9.444;2022-10-29T10:43:16;17.30;99.90
7518;DHT22;3800;48.922;9.444;2022-10-29T10:45:40;17.40;99.90
7518;DHT22;3800;48.922;9.444;2022-10-29T10:48:08;17.40;99.90
7518;DHT22;3800;48.922;9.444;2022-10-29T10:50:36;17.50;99.90
7518;DHT22;3800;48.922;9.444;2022-10-29T10:53:05;17.50;99.90
7518;DHT22;3800;48.922;9.444;2022-10-29T10:55:33;17.70;99.90
7518;DHT22;3800;48.922;9.444;2022-10-29T11:00:42;18.10;99.90
7518;DHT22;3800;48.922;9.444;2022-10-29T11:03:23;18.20;99.90
7518;DHT22;3800;48.922;9.444;2022-10-29T11:05:53;18.10;99.90
7518;DHT22;3800;48.922;9.444;2022-10-29T11:08:19;18.30;99.90
7518;DHT22;3800;48.922;9.444;2022-10-29T11:10:49;18.30;99.90
7518;DHT22;3800;48.922;9.444;2022-10-29T11:13:17;18.50;99.90
7518;DHT22;3800;48.922;9.444;2022-10-29T11:15:46;18.50;99.90
7518;DHT22;3800;48.922;9.444;2022-10-29T11:18:15;18.50;99.90
7518;DHT22;3800;48.922;9.444;2022-10-29T11:20:43;18.60;99.90
7518;DHT22;3800;48.922;9.444;2022-10-29T11:23:32;18.70;99.90
7518;DHT22;3800;48.922;9.444;2022-10-29T11:26:05;18.70;99.90
7518;DHT22;3800;48.922;9.444;2022-10-29T11:28:32;18.70;99.90
7518;DHT22;3800;48.922;9.444;2022-10-29T11:33:51;18.70;99.90
7518;DHT22;3800;48.922;9.444;2022-10-29T11:36:18;18.70;99.90
7518;DHT22;3800;48.922;9.444;2022-10-29T11:38:48;18.80;99.90
7518;DHT22;3800;48.922;9.444;2022-10-29T11:41:23;18.90;99.90
7518;DHT22;3800;48.922;9.444;2022-10-29T11:43:50;18.80;99.90
7518;DHT22;3800;48.922;9.444;2022-10-29T11:49:24;18.90;99.90
7518;DHT22;3800;48.922;9.444;2022-10-29T11:51:57;18.90;99.90
7518;DHT22;3800;48.922;9.444;2022-10-29T11:54:27;19.10;99.90
7518;DHT22;3800;48.922;9.444;2022-10-29T11:56:53;19.10;99.90
7518;DHT22;3800;48.922;9.444;2022-10-29T11:59:21;19.20;99.90
7518;DHT22;3800;48.922;9.444;2022-10-29T12:01:56;19.30;99.90
7518;DHT22;3800;48.922;9.444;2022-10-29T12:07:18;19.40;99.90
7518;DHT22;3800;48.922;9.444;2022-10-29T12:09:56;19.50;99.90
7518;DHT22;3800;48.922;9.444;2022-10-29T12:12:21;19.50;99.90
7518;DHT22;3800;48.922;9.444;2022-10-29T12:14:54;19.60;99.90
7518;DHT22;3800;48.922;9.444;2022-10-29T12:17:19;19.70;99.90
7518;DHT22;3800;48.922;9.444;2022-10-29T12:20:59;19.90;99.90
7518;DHT22;3800;48.922;9.444;2022-10-29T12:22:51;19.90;99.90
7518;DHT22;3800;48.922;9.444;2022-10-29T12:28:08;20.10;99.90
7518;DHT22;3800;48.922;9.444;2022-10-29T12:30:34;20.10;99.90
7518;DHT22;3800;48.922;9.444;2022-10-29T12:38:40;20.30;99.90
7518;DHT22;3800;48.922;9.444;2022-10-29T12:41:13;20.30;99.90
7518;DHT22;3800;48.922;9.444;2022-10-29T12:43:40;20.20;99.90
7518;DHT22;3800;48.922;9.444;2022-10-29T12:46:29;20.30;99.90
7518;DHT22;3800;48.922;9.444;2022-10-29T12:48:58;20.40;99.90
7518;DHT22;3800;48.922;9.444;2022-10-29T12:52:37;20.50;99.90
7518;DHT22;3800;48.922;9.444;2022-10-29T12:54:34;20.70;99.90
7518;DHT22;3800;48.922;9.444;2022-10-29T12:57:03;20.60;99.90
7518;DHT22;3800;48.922;9.444;2022-10-29T12:59:33;20.70;99.90
7518;DHT22;3800;48.922;9.444;2022-10-29T13:02:23;20.70;99.90
7518;DHT22;3800;48.922;9.444;2022-10-29T13:07:30;20.90;99.90
7518;DHT22;3800;48.922;9.444;2022-10-29T13:13:11;20.90;99.90
7518;DHT22;3800;48.922;9.444;2022-10-29T13:15:35;21.00;99.90
7518;DHT22;3800;48.922;9.444;2022-10-29T13:18:16;21.00;99.90
7518;DHT22;3800;48.922;9.444;2022-10-29T13:20:47;21.10;99.90
7518;DHT22;3800;48.922;9.444;2022-10-29T13:23:33;21.00;99.90
7518;DHT22;3800;48.922;9.444;2022-10-29T13:26:01;21.00;99.90
7518;DHT22;3800;48.922;9.444;2022-10-29T13:28:45;21.10;99.90
7518;DHT22;3800;48.922;9.444;2022-10-29T13:31:37;21.20;99.90
7518;DHT22;3800;48.922;9.444;2022-10-29T13:34:05;21.30;99.90
7518;DHT22;3800;48.922;9.444;2022-10-29T13:36:35;21.20;99.90
7518;DHT22;3800;48.922;9.444;2022-10-29T13:39:15;21.40;99.90
7518;DHT22;3800;48.922;9.444;2022-10-29T13:41:35;21.30;99.90
7518;DHT22;3800;48.922;9.444;2022-10-29T13:44:10;21.30;99.90
7518;DHT22;3800;48.922;9.444;2022-10-29T13:46:53;21.30;99.90
7518;DHT22;3800;48.922;9.444;2022-10-29T13:49:24;21.30;99.90
7518;DHT22;3800;48.922;9.444;2022-10-29T13:51:54;21.30;99.90
7518;DHT22;3800;48.922;9.444;2022-10-29T13:54:24;21.30;99.90
7518;DHT22;3800;48.922;9.444;2022-10-29T13:56:55;21.30;99.90
7518;DHT22;3800;48.922;9.444;2022-10-29T13:59:25;21.30;99.90
7518;DHT22;3800;48.922;9.444;2022-10-29T14:01:56;21.30;99.90
7518;DHT22;3800;48.922;9.444;2022-10-29T14:04:23;21.30;99.90
7518;DHT22;3800;48.922;9.444;2022-10-29T14:06:49;21.20;99.90
7518;DHT22;3800;48.922;9.444;2022-10-29T14:09:21;21.30;99.90
7518;DHT22;3800;48.922;9.444;2022-10-29T14:11:52;21.20;99.90
7518;DHT22;3800;48.922;9.444;2022-10-29T14:14:40;21.20;99.90
7518;DHT22;3800;48.922;9.444;2022-10-29T14:17:08;21.20;99.90
7518;DHT22;3800;48.922;9.444;2022-10-29T14:19:35;21.10;99.90
7518;DHT22;3800;48.922;9.444;2022-10-29T14:22:13;21.10;99.90
7518;DHT22;3800;48.922;9.444;2022-10-29T14:24:35;21.10;99.90
7518;DHT22;3800;48.922;9.444;2022-10-29T14:27:04;21.10;99.90
7518;DHT22;3800;48.922;9.444;2022-10-29T14:29:25;21.10;99.90
7518;DHT22;3800;48.922;9.444;2022-10-29T14:32:13;21.00;99.90
7518;DHT22;3800;48.922;9.444;2022-10-29T14:34:40;21.10;99.90
7518;DHT22;3800;48.922;9.444;2022-10-29T14:37:22;21.00;99.90
7518;DHT22;3800;48.922;9.444;2022-10-29T14:39:51;21.00;99.90
7518;DHT22;3800;48.922;9.444;2022-10-29T14:42:31;21.00;99.90
7518;DHT22;3800;48.922;9.444;2022-10-29T14:45:02;21.00;99.90
7518;DHT22;3800;48.922;9.444;2022-10-29T14:47:30;20.90;99.90
7518;DHT22;3800;48.922;9.444;2022-10-29T14:49:57;20.90;99.90
7518;DHT22;3800;48.922;9.444;2022-10-29T14:52:29;20.90;99.90
7518;DHT22;3800;48.922;9.444;2022-10-29T14:54:58;20.90;99.90
7518;DHT22;3800;48.922;9.444;2022-10-29T14:57:25;20.80;99.90
7518;DHT22;3800;48.922;9.444;2022-10-29T14:59:53;20.80;99.90
7518;DHT22;3800;48.922;9.444;2022-10-29T15:02:20;20.80;99.90
7518;DHT22;3800;48.922;9.444;2022-10-29T15:04:49;20.70;99.90
7518;DHT22;3800;48.922;9.444;2022-10-29T15:07:31;20.70;99.90
7518;DHT22;3800;48.922;9.444;2022-10-29T15:10:22;20.70;99.90
7518;DHT22;3800;48.922;9.444;2022-10-29T15:12:50;20.60;99.90
7518;DHT22;3800;48.922;9.444;2022-10-29T15:15:22;20.60;99.90
7518;DHT22;3800;48.922;9.444;2022-10-29T15:17:54;20.50;99.90
7518;DHT22;3800;48.922;9.444;2022-10-29T15:20:33;20.50;99.90
7518;DHT22;3800;48.922;9.444;2022-10-29T15:22:57;20.50;99.90
7518;DHT22;3800;48.922;9.444;2022-10-29T15:25:30;20.40;99.90
7518;DHT22;3800;48.922;9.444;2022-10-29T15:27:56;20.40;99.90
7518;DHT22;3800;48.922;9.444;2022-10-29T15:30:32;20.30;99.90
7518;DHT22;3800;48.922;9.444;2022-10-29T15:33:01;20.30;99.90
7518;DHT22;3800;48.922;9.444;2022-10-29T15:35:28;20.20;99.90
7518;DHT22;3800;48.922;9.444;2022-10-29T15:37:56;20.10;99.90
7518;DHT22;3800;48.922;9.444;2022-10-29T15:40:24;20.10;99.90
7518;DHT22;3800;48.922;9.444;2022-10-29T15:42:53;20.00;99.90
7518;DHT22;3800;48.922;9.444;2022-10-29T15:45:25;20.00;99.90
7518;DHT22;3800;48.922;9.444;2022-10-29T15:47:55;19.90;99.90
7518;DHT22;3800;48.922;9.444;2022-10-29T15:50:23;19.80;99.90
7518;DHT22;3800;48.922;9.444;2022-10-29T15:52:51;19.80;99.90
7518;DHT22;3800;48.922;9.444;2022-10-29T15:55:21;19.70;99.90
7518;DHT22;3800;48.922;9.444;2022-10-29T15:57:48;19.70;99.90
7518;DHT22;3800;48.922;9.444;2022-10-29T16:00:16;19.60;99.90
7518;DHT22;3800;48.922;9.444;2022-10-29T16:02:44;19.40;99.90
7518;DHT22;3800;48.922;9.444;2022-10-29T16:05:12;19.40;99.90
7518;DHT22;3800;48.922;9.444;2022-10-29T16:07:40;19.40;99.90
7518;DHT22;3800;48.922;9.444;2022-10-29T16:10:11;19.30;99.90
7518;DHT22;3800;48.922;9.444;2022-10-29T16:12:34;19.20;99.90
7518;DHT22;3800;48.922;9.444;2022-10-29T16:15:02;19.10;99.90
7518;DHT22;3800;48.922;9.444;2022-10-29T16:17:30;19.00;99.90
7518;DHT22;3800;48.922;9.444;2022-10-29T16:19:58;18.90;99.90
7518;DHT22;3800;48.922;9.444;2022-10-29T16:22:26;18.90;99.90
7518;DHT22;3800;48.922;9.444;2022-10-29T16:24:54;18.80;99.90
7518;DHT22;3800;48.922;9.444;2022-10-29T16:27:21;18.60;99.90
7518;DHT22;3800;48.922;9.444;2022-10-29T16:29:49;18.60;99.90
7518;DHT22;3800;48.922;9.444;2022-10-29T16:32:17;18.50;99.90
7518;DHT22;3800;48.922;9.444;2022-10-29T16:34:44;18.40;99.90
7518;DHT22;3800;48.922;9.444;2022-10-29T16:37:13;18.30;99.90
7518;DHT22;3800;48.922;9.444;2022-10-29T16:39:40;18.20;99.90
7518;DHT22;3800;48.922;9.444;2022-10-29T16:42:13;18.10;99.90
7518;DHT22;3800;48.922;9.444;2022-10-29T16:44:35;18.00;99.90
7518;DHT22;3800;48.922;9.444;2022-10-29T16:47:03;17.90;99.90
7518;DHT22;3800;48.922;9.444;2022-10-29T16:49:31;17.90;99.90
7518;DHT22;3800;48.922;9.444;2022-10-29T16:51:58;17.80;99.90